createdAt,value
2022-09-26T00:00:43.347Z,30.50
2022-09-26T00:04:05.055Z,28.70
2022-09-26T00:07:06.908Z,31.40
2022-09-26T00:10:09.146Z,31.60
2022-09-26T00:13:14.170Z,32.00
2022-09-26T00:16:16.044Z,32.00
2022-09-26T00:19:18.215Z,31.90
2022-09-26T00:22:19.987Z,33.90
2022-09-26T00:25:21.835Z,33.00
2022-09-26T00:28:23.640Z,33.10
2022-09-26T00:31:29.390Z,33.10
2022-09-26T00:34:31.214Z,32.90
2022-09-26T00:37:32.998Z,34.40
2022-09-26T00:40:34.929Z,34.70
2022-09-26T00:43:39.903Z,34.40
2022-09-26T00:46:48.035Z,34.70
2022-09-26T00:49:52.351Z,35.60
2022-09-26T00:53:01.771Z,33.40
2022-09-26T00:56:07.695Z,34.70
2022-09-26T00:59:32.715Z,34.80
2022-09-26T01:02:35.547Z,35.70
2022-09-26T01:05:38.080Z,35.10
2022-09-26T01:08:43.191Z,32.40
2022-09-26T01:11:45.317Z,33.90
2022-09-26T01:14:49.099Z,33.00
2022-09-26T01:17:51.189Z,32.30
2022-09-26T01:21:11.837Z,30.50
2022-09-26T01:24:28.773Z,31.50
2022-09-26T01:27:51.059Z,31.40
2022-09-26T01:31:12.128Z,34.50
2022-09-26T01:34:28.306Z,32.80
2022-09-26T01:37:51.856Z,30.10
2022-09-26T01:41:33.098Z,32.60
2022-09-26T01:44:57.949Z,32.60
2022-09-26T01:48:09.933Z,31.30
2022-09-26T01:51:20.589Z,32.10
2022-09-26T01:54:47.089Z,31.40
2022-09-26T01:58:03.787Z,32.40
2022-09-26T02:01:10.895Z,33.20
2022-09-26T02:04:18.053Z,31.90
2022-09-26T02:07:23.604Z,30.10
2022-09-26T02:10:29.147Z,30.70
2022-09-26T02:13:37.715Z,30.40
2022-09-26T02:16:43.057Z,30.40
2022-09-26T02:19:52.246Z,31.70
2022-09-26T02:22:54.127Z,31.40
2022-09-26T02:25:55.995Z,32.30
2022-09-26T02:28:57.764Z,32.90
2022-09-26T02:32:05.993Z,34.00
2022-09-26T02:35:33.905Z,35.50
2022-09-26T02:38:37.850Z,33.50
2022-09-26T02:41:39.516Z,34.40
2022-09-26T02:44:53.239Z,36.10
2022-09-26T02:48:01.156Z,35.60
2022-09-26T02:51:18.933Z,34.70
2022-09-26T02:54:33.117Z,33.60
2022-09-26T02:57:46.160Z,32.90
2022-09-26T03:01:10.834Z,32.60
2022-09-26T03:04:19.204Z,33.30
2022-09-26T03:07:30.161Z,34.10
2022-09-26T03:10:32.514Z,31.30
2022-09-26T03:13:36.238Z,33.50
2022-09-26T03:16:40.385Z,32.50
2022-09-26T03:19:47.337Z,35.40
2022-09-26T03:22:49.698Z,35.10
2022-09-26T03:26:00.978Z,34.10
2022-09-26T03:29:03.854Z,31.80
2022-09-26T03:32:06.583Z,33.00
2022-09-26T03:35:09.364Z,35.50
2022-09-26T03:38:14.375Z,35.40
2022-09-26T03:41:16.486Z,34.60
2022-09-26T03:44:18.227Z,35.30
2022-09-26T03:47:20.079Z,35.30
2022-09-26T03:50:21.741Z,35.00
2022-09-26T03:53:23.567Z,35.10
2022-09-26T03:56:27.103Z,36.70
2022-09-26T03:59:28.984Z,35.10
2022-09-26T04:02:30.884Z,36.90
2022-09-26T04:05:32.811Z,38.10
2022-09-26T04:08:37.082Z,33.10
2022-09-26T04:11:39.579Z,32.20
2022-09-26T04:14:43.515Z,30.80
2022-09-26T04:17:45.254Z,29.30
2022-09-26T04:20:47.044Z,30.00
2022-09-26T04:23:50.478Z,31.90
2022-09-26T04:26:52.335Z,31.50
2022-09-26T04:29:54.100Z,33.70
2022-09-26T04:32:56.243Z,31.20
2022-09-26T04:36:02.388Z,27.10
2022-09-26T04:39:04.361Z,24.10
2022-09-26T04:42:07.130Z,24.30
2022-09-26T04:45:09.345Z,24.20
2022-09-26T04:48:11.130Z,24.50
2022-09-26T04:51:14.703Z,26.70
2022-09-26T04:54:16.856Z,26.60
2022-09-26T04:57:19.993Z,28.20
2022-09-26T05:00:23.435Z,29.20
2022-09-26T05:03:25.445Z,30.30
2022-09-26T05:06:27.332Z,29.70
2022-09-26T05:09:32.851Z,29.40
2022-09-26T05:12:39.689Z,29.60
2022-09-26T05:15:42.925Z,30.10
2022-09-26T05:18:56.240Z,33.30
2022-09-26T05:21:58.136Z,33.60
2022-09-26T05:25:18.794Z,32.90
2022-09-26T05:28:20.690Z,32.70
2022-09-26T05:31:25.436Z,34.20
2022-09-26T05:34:27.209Z,36.00
2022-09-26T05:37:28.969Z,37.80
2022-09-26T05:40:50.557Z,40.80
2022-09-26T05:46:56.990Z,44.20
2022-09-26T05:49:58.922Z,45.20
2022-09-26T05:53:03.044Z,46.30
2022-09-26T05:56:06.525Z,44.50
2022-09-26T05:59:09.271Z,44.80
2022-09-26T06:02:11.769Z,46.80
2022-09-26T06:05:13.592Z,45.30
2022-09-26T06:08:17.536Z,46.20
2022-09-26T06:11:46.835Z,48.00
2022-09-26T06:14:48.655Z,49.10
2022-09-26T06:17:58.569Z,51.00
2022-09-26T06:21:05.064Z,50.60
2022-09-26T06:24:07.179Z,48.20
2022-09-26T06:27:09.328Z,47.90
2022-09-26T06:30:12.063Z,44.40
2022-09-26T06:33:13.984Z,48.00
2022-09-26T06:36:16.141Z,46.10
2022-09-26T06:39:18.082Z,47.40
2022-09-26T06:42:19.990Z,55.60
2022-09-26T06:45:21.939Z,51.10
2022-09-26T06:48:25.118Z,47.20
2022-09-26T06:51:26.896Z,43.70
2022-09-26T06:54:28.715Z,42.30
2022-09-26T06:57:40.153Z,42.80
2022-09-26T07:03:45.835Z,55.10
2022-09-26T07:06:48.146Z,47.50
2022-09-26T07:09:49.966Z,43.40
2022-09-26T07:12:53.184Z,67.20
2022-09-26T07:15:58.594Z,72.20
2022-09-26T07:19:00.378Z,71.40
2022-09-26T07:22:02.281Z,70.00
2022-09-26T07:25:05.003Z,48.30
2022-09-26T07:28:07.918Z,39.00
2022-09-26T07:31:10.039Z,36.80
2022-09-26T07:34:18.076Z,36.60
2022-09-26T07:37:20.726Z,35.50
2022-09-26T07:40:22.897Z,34.60
2022-09-26T07:43:42.744Z,34.90
2022-09-26T07:47:05.223Z,51.80
2022-09-26T07:50:14.722Z,31.90
2022-09-26T07:53:17.124Z,27.40
2022-09-26T07:56:19.144Z,29.10
2022-09-26T07:59:23.015Z,27.10
2022-09-26T08:02:29.092Z,29.50
2022-09-26T08:05:31.935Z,26.00
2022-09-26T08:08:34.959Z,23.70
2022-09-26T08:11:37.816Z,20.40
2022-09-26T08:14:39.966Z,18.10
2022-09-26T08:17:43.517Z,18.70
2022-09-26T08:20:47.596Z,19.60
2022-09-26T08:23:49.747Z,16.90
2022-09-26T08:26:55.263Z,17.30
2022-09-26T08:29:57.070Z,16.10
2022-09-26T08:33:00.743Z,15.10
2022-09-26T08:36:13.371Z,16.00
2022-09-26T08:39:16.014Z,16.30
2022-09-26T08:42:41.897Z,15.40
2022-09-26T08:46:25.425Z,15.40
2022-09-26T08:50:12.179Z,16.90
2022-09-26T08:53:17.688Z,16.80
2022-09-26T08:56:23.522Z,16.10
2022-09-26T08:59:30.428Z,16.50
2022-09-26T09:02:44.683Z,15.40
2022-09-26T09:05:54.956Z,15.60
2022-09-26T09:08:57.755Z,16.10
2022-09-26T09:12:27.942Z,17.50
2022-09-26T09:15:33.421Z,17.80
2022-09-26T09:18:44.340Z,18.40
2022-09-26T09:21:51.969Z,16.80
2022-09-26T09:25:00.985Z,16.40
2022-09-26T09:28:10.055Z,16.70
2022-09-26T09:31:13.634Z,15.90
2022-09-26T09:34:25.689Z,17.30
2022-09-26T09:37:43.287Z,17.10
2022-09-26T09:41:14.030Z,18.50
2022-09-26T09:44:56.054Z,19.30
2022-09-26T09:47:58.321Z,19.70
2022-09-26T09:51:03.110Z,20.60
2022-09-26T09:54:13.938Z,22.20
2022-09-26T09:57:44.019Z,21.00
2022-09-26T10:00:51.765Z,20.90
2022-09-26T10:04:11.579Z,19.10
2022-09-26T10:07:13.606Z,20.40
2022-09-26T10:10:21.329Z,17.20
2022-09-26T10:13:26.021Z,16.80
2022-09-26T10:16:27.997Z,18.40
2022-09-26T10:19:41.407Z,18.80
2022-09-26T10:22:45.705Z,18.70
2022-09-26T10:25:50.389Z,22.00
2022-09-26T10:28:56.910Z,20.70
2022-09-26T10:32:00.671Z,23.40
2022-09-26T10:35:08.005Z,25.00
2022-09-26T10:38:22.041Z,25.00
2022-09-26T10:41:25.475Z,24.90
2022-09-26T10:44:29.743Z,25.60
2022-09-26T10:47:33.763Z,26.00
2022-09-26T10:50:35.742Z,25.20
2022-09-26T10:53:40.264Z,27.00
2022-09-26T10:56:47.964Z,24.50
2022-09-26T10:59:50.720Z,27.00
2022-09-26T11:02:52.949Z,27.70
2022-09-26T11:05:57.803Z,26.50
2022-09-26T11:09:03.407Z,26.40
2022-09-26T11:12:29.228Z,21.40
2022-09-26T11:15:31.993Z,21.50
2022-09-26T11:18:39.799Z,20.20
2022-09-26T11:21:58.731Z,21.00
2022-09-26T11:25:19.410Z,21.30
2022-09-26T11:28:27.300Z,19.70
2022-09-26T11:31:31.009Z,19.60
2022-09-26T11:34:34.090Z,17.60
2022-09-26T11:37:51.255Z,19.20
2022-09-26T11:41:01.965Z,17.90
2022-09-26T11:44:06.991Z,18.10
2022-09-26T11:47:30.751Z,18.50
2022-09-26T11:50:44.842Z,16.80
2022-09-26T11:53:49.676Z,15.70
2022-09-26T11:57:03.491Z,15.30
2022-09-26T12:00:29.186Z,14.10
2022-09-26T12:03:33.667Z,15.60
2022-09-26T12:06:49.839Z,16.20
2022-09-26T12:09:51.593Z,15.40
2022-09-26T12:13:29.947Z,16.00
2022-09-26T12:16:36.753Z,15.70
2022-09-26T12:19:57.691Z,21.30
2022-09-26T12:23:24.414Z,15.70
2022-09-26T12:27:11.125Z,14.40
2022-09-26T12:30:20.188Z,12.10
2022-09-26T12:34:00.330Z,12.40
2022-09-26T12:37:15.529Z,12.30
2022-09-26T12:40:29.444Z,11.80
2022-09-26T12:43:54.279Z,10.70
2022-09-26T12:47:14.590Z,11.40
2022-09-26T12:50:44.032Z,11.00
2022-09-26T12:54:19.754Z,8.70
2022-09-26T12:57:54.631Z,9.50
2022-09-26T13:01:12.217Z,9.80
2022-09-26T13:04:24.935Z,9.00
2022-09-26T13:07:47.463Z,8.80
2022-09-26T13:11:05.309Z,9.50
2022-09-26T13:14:19.810Z,9.10
2022-09-26T13:17:24.706Z,8.50
2022-09-26T13:20:36.243Z,8.80
2022-09-26T13:23:48.967Z,8.70
2022-09-26T13:26:55.127Z,8.60
2022-09-26T13:30:04.024Z,8.90
2022-09-26T13:33:18.591Z,8.90
2022-09-26T13:36:22.344Z,8.50
2022-09-26T13:39:43.040Z,6.70
2022-09-26T13:42:51.178Z,8.80
2022-09-26T13:46:32.123Z,8.80
2022-09-26T13:49:55.679Z,9.00
2022-09-26T13:52:57.414Z,6.60
2022-09-26T13:56:40.158Z,6.60
2022-09-26T13:59:51.699Z,6.30
2022-09-26T14:03:16.777Z,6.50
2022-09-26T14:06:28.569Z,7.10
2022-09-26T14:12:53.672Z,6.70
2022-09-26T14:16:01.524Z,6.70
2022-09-26T14:19:04.300Z,6.70
2022-09-26T14:22:26.250Z,7.20
2022-09-26T14:25:46.592Z,7.10
2022-09-26T14:28:53.782Z,7.10
2022-09-26T14:32:05.544Z,7.40
2022-09-26T14:35:19.506Z,6.50
2022-09-26T14:38:21.765Z,6.80
2022-09-26T14:41:27.997Z,6.70
2022-09-26T14:44:34.981Z,7.10
2022-09-26T14:47:44.434Z,7.50
2022-09-26T14:51:18.768Z,7.80
2022-09-26T14:54:26.785Z,6.70
2022-09-26T14:57:31.826Z,6.50
2022-09-26T15:00:36.137Z,7.00
2022-09-26T15:03:38.419Z,7.10
2022-09-26T15:06:43.627Z,6.80
2022-09-26T15:09:55.814Z,6.60
2022-09-26T15:13:03.481Z,6.40
2022-09-26T15:16:24.275Z,6.60
2022-09-26T15:19:30.231Z,6.20
2022-09-26T15:22:32.090Z,6.90
2022-09-26T15:25:34.639Z,6.70
2022-09-26T15:28:37.866Z,6.90
2022-09-26T15:31:43.827Z,6.50
2022-09-26T15:34:46.990Z,6.80
2022-09-26T15:37:48.962Z,6.90
2022-09-26T15:41:01.994Z,7.40
2022-09-26T15:44:07.279Z,7.50
2022-09-26T15:47:44.859Z,8.50
2022-09-26T15:51:11.744Z,8.60
2022-09-26T15:54:21.761Z,8.20
2022-09-26T15:57:24.398Z,9.30
2022-09-26T16:00:26.816Z,9.20
2022-09-26T16:03:48.131Z,9.30
2022-09-26T16:07:04.452Z,11.00
2022-09-26T16:10:06.986Z,10.70
2022-09-26T16:13:24.024Z,10.70
2022-09-26T16:16:32.141Z,26.60
2022-09-26T16:19:35.740Z,14.30
2022-09-26T16:22:39.022Z,18.50
2022-09-26T16:25:48.012Z,12.90
2022-09-26T16:28:53.180Z,15.00
2022-09-26T16:31:55.663Z,14.10
2022-09-26T16:35:11.776Z,20.60
2022-09-26T16:38:32.877Z,16.40
2022-09-26T16:42:00.693Z,10.90
2022-09-26T16:45:05.470Z,11.20
2022-09-26T16:48:32.992Z,11.30
2022-09-26T16:52:14.961Z,11.90
2022-09-26T16:55:16.766Z,13.40
2022-09-26T16:58:18.731Z,17.30
2022-09-26T17:01:39.443Z,16.40
2022-09-26T17:04:41.947Z,34.30
2022-09-26T17:07:43.685Z,44.00
2022-09-26T17:10:46.388Z,29.60
2022-09-26T17:13:50.429Z,19.00
2022-09-26T17:16:55.520Z,20.30
2022-09-26T17:19:59.590Z,15.20
2022-09-26T17:23:17.137Z,14.10
2022-09-26T17:26:24.430Z,13.80
2022-09-26T17:29:30.160Z,22.30
2022-09-26T17:32:35.937Z,19.10
2022-09-26T17:35:40.363Z,16.00
2022-09-26T17:38:43.536Z,18.00
2022-09-26T17:41:45.306Z,16.00
2022-09-26T17:44:48.403Z,13.50
2022-09-26T17:47:52.108Z,13.90
2022-09-26T17:50:55.831Z,28.40
2022-09-26T17:53:57.696Z,25.10
2022-09-26T17:56:59.578Z,23.30
2022-09-26T18:00:08.913Z,25.00
2022-09-26T18:03:19.259Z,22.80
2022-09-26T18:06:25.352Z,24.10
2022-09-26T18:09:32.087Z,19.80
2022-09-26T18:12:35.078Z,19.50
2022-09-26T18:15:37.027Z,19.20
2022-09-26T18:18:39.094Z,17.30
2022-09-26T18:21:40.990Z,17.40
2022-09-26T18:24:45.142Z,16.20
2022-09-26T18:27:47.862Z,13.20
2022-09-26T18:30:57.844Z,11.60
2022-09-26T18:34:01.459Z,14.20
2022-09-26T18:37:04.269Z,23.70
2022-09-26T18:40:06.855Z,15.50
2022-09-26T18:43:13.246Z,17.60
2022-09-26T18:46:17.219Z,16.00
2022-09-26T18:49:19.219Z,18.00
2022-09-26T18:52:21.502Z,12.10
2022-09-26T18:55:44.261Z,16.70
2022-09-26T18:58:48.065Z,22.30
2022-09-26T19:01:49.922Z,23.40
2022-09-26T19:04:52.662Z,21.00
2022-09-26T19:07:54.489Z,21.50
2022-09-26T19:10:56.378Z,27.40
2022-09-26T19:14:00.687Z,28.60
2022-09-26T19:17:03.260Z,25.80
2022-09-26T19:20:05.352Z,27.80
2022-09-26T19:23:09.756Z,26.80
2022-09-26T19:26:22.947Z,26.20
2022-09-26T19:29:32.355Z,25.20
2022-09-26T19:32:38.503Z,27.10
2022-09-26T19:35:40.804Z,27.00
2022-09-26T19:38:42.935Z,26.40
2022-09-26T19:41:44.745Z,26.00
2022-09-26T19:44:46.635Z,27.00
2022-09-26T19:47:51.250Z,23.10
2022-09-26T19:50:53.102Z,21.90
2022-09-26T19:53:54.987Z,20.90
2022-09-26T19:56:57.436Z,22.60
2022-09-26T19:59:59.423Z,21.40
2022-09-26T20:03:01.455Z,19.80
2022-09-26T20:06:03.396Z,18.00
2022-09-26T20:09:06.659Z,16.70
2022-09-26T20:12:08.987Z,18.70
2022-09-26T20:15:14.593Z,17.40
2022-09-26T20:18:20.859Z,17.50
2022-09-26T20:21:29.381Z,17.80
2022-09-26T20:24:32.535Z,17.50
2022-09-26T20:27:34.386Z,16.60
2022-09-26T20:30:51.826Z,18.30
2022-09-26T20:33:54.976Z,19.70
2022-09-26T20:36:58.559Z,21.20
2022-09-26T20:40:01.219Z,17.40
2022-09-26T20:43:06.581Z,19.70
2022-09-26T20:46:09.904Z,17.80
2022-09-26T20:49:16.559Z,16.00
2022-09-26T20:52:20.943Z,16.30
2022-09-26T20:55:22.783Z,17.10
2022-09-26T20:58:24.934Z,18.20
2022-09-26T21:01:27.428Z,18.00
2022-09-26T21:04:31.614Z,19.70
2022-09-26T21:07:33.517Z,19.30
2022-09-26T21:10:35.412Z,19.40
2022-09-26T21:13:37.356Z,20.90
2022-09-26T21:16:43.109Z,21.40
2022-09-26T21:19:45.058Z,25.20
2022-09-26T21:22:47.004Z,24.60
2022-09-26T21:25:49.059Z,26.20
2022-09-26T21:28:52.155Z,27.70
2022-09-26T21:31:56.360Z,29.60
2022-09-26T21:35:03.255Z,28.30
2022-09-26T21:38:05.578Z,28.50
2022-09-26T21:41:09.479Z,30.80
2022-09-26T21:44:18.315Z,33.00
2022-09-26T21:47:20.086Z,32.60
2022-09-26T21:50:22.336Z,34.20
2022-09-26T21:53:45.848Z,39.70
2022-09-26T21:56:53.377Z,39.90
2022-09-26T21:59:56.229Z,40.50
2022-09-26T22:02:59.662Z,40.10
2022-09-26T22:06:07.480Z,33.80
2022-09-26T22:09:09.855Z,34.80
2022-09-26T22:12:11.700Z,35.00
2022-09-26T22:15:13.463Z,40.10
2022-09-26T22:18:15.322Z,40.00
2022-09-26T22:21:17.107Z,37.20
2022-09-26T22:24:19.224Z,34.90
2022-09-26T22:27:21.400Z,33.50
2022-09-26T22:30:23.362Z,32.20
2022-09-26T22:33:25.326Z,31.70
2022-09-26T22:36:27.419Z,32.10
2022-09-26T22:39:29.327Z,31.40
2022-09-26T22:42:31.160Z,30.10
2022-09-26T22:45:36.138Z,27.80
2022-09-26T22:48:40.449Z,29.80
2022-09-26T22:51:42.303Z,27.00
2022-09-26T22:54:44.086Z,26.20
2022-09-26T22:57:46.283Z,27.40
2022-09-26T23:00:48.482Z,26.20
2022-09-26T23:03:53.033Z,26.00
2022-09-26T23:07:16.779Z,26.40
2022-09-26T23:10:33.595Z,25.80
2022-09-26T23:13:35.716Z,26.70
2022-09-26T23:16:38.697Z,24.20
2022-09-26T23:19:41.447Z,27.40
2022-09-26T23:22:43.367Z,26.50
2022-09-26T23:25:47.524Z,26.50
2022-09-26T23:28:50.556Z,25.70
2022-09-26T23:31:52.479Z,25.70
2022-09-26T23:34:54.386Z,25.40
2022-09-26T23:37:56.545Z,22.90
2022-09-26T23:40:58.445Z,23.80
2022-09-26T23:44:00.320Z,24.60
2022-09-26T23:47:05.366Z,23.30
2022-09-26T23:50:08.215Z,22.10
2022-09-26T23:53:10.889Z,23.20
2022-09-26T23:56:14.307Z,24.30
2022-09-26T23:59:16.221Z,24.40
